Flight Track Log - Related Links

Times and Time Zones

All times are in EDT time to prevent confusion due to time zone crossing. See the SKW6228 flight status page for this flight to view local times or setup timezone preferences in your user account.

Time Position Orientation Groundspeed Altitude Reporting Facility
EDT Latitude Longitude Course Direction KTS MPH feet Rate Location/Type
Mon 10:26:00 AM 40.0992 -105.2861 297° West  Level Estimated
Mon 10:27:00 AM 40.1463 -105.4092 297° West  Level Estimated
Mon 10:28:00 AM 40.1932 -105.5325 297° West  Level Estimated
Mon 10:29:00 AM 40.2401 -105.6560 296° West  Level Estimated
Mon 10:30:00 AM 40.2868 -105.7796 296° West  Level Estimated
Mon 10:31:00 AM 40.3334 -105.9034 296° West  Level Estimated
Mon 10:32:00 AM 40.3799 -106.0274 296° West  Level Estimated
Mon 10:33:00 AM 40.4262 -106.1515 296° West  Level Estimated
Mon 10:34:00 AM 40.4724 -106.2758 296° West  Level Estimated
Mon 10:35:00 AM 40.5184 -106.4003 296° West  Level Estimated
Mon 10:36:00 AM 40.5643 -106.5249 296° West  Level Estimated
Mon 10:37:00 AM 40.6101 -106.6497 296° West  Level Estimated
Mon 10:38:00 AM 40.6558 -106.7747 296° West  Level Estimated
Mon 10:39:00 AM 40.7013 -106.8998 296° West  Level Estimated
Mon 10:40:00 AM 40.7467 -107.0252 296° West  Level Estimated
Mon 10:41:00 AM 40.7919 -107.1507 295° West  Level Estimated
Mon 10:42:00 AM 40.8370 -107.2763 295° West  Level Estimated
Mon 10:43:00 AM 40.8820 -107.4022 295° West  Level Estimated
Mon 10:44:00 AM 40.9268 -107.5282 295° West  Level Estimated
Mon 10:45:00 AM 40.9715 -107.6544 295° West  Level Estimated
Mon 10:46:00 AM 41.0161 -107.7807 295° West  Level Estimated
Mon 10:47:00 AM 41.0605 -107.9072 295° West  Level Estimated
Mon 10:48:00 AM 41.1048 -108.0339 295° West  Level Estimated
Mon 10:49:00 AM 41.1490 -108.1608 295° West  Level Estimated
Mon 10:50:00 AM 41.1930 -108.2878 295° West  Level Estimated
Mon 10:51:00 AM 41.2369 -108.4150 295° West  Level Estimated
Mon 10:52:00 AM 41.2806 -108.5424 295° West  Level Estimated
Mon 10:53:00 AM 41.3242 -108.6700 295° West  Level Estimated
Mon 10:54:00 AM 41.3676 -108.7977 294° West  Level Estimated
Mon 10:55:00 AM 41.4109 -108.9256 294° West  Level Estimated
Mon 10:56:00 AM 41.4541 -109.0536 294° West  Level Estimated
Mon 10:57:00 AM 41.4971 -109.1819 294° West  Level Estimated
Mon 10:58:00 AM 41.5400 -109.3103 294° West  Level Estimated
Mon 10:59:00 AM 41.5827 -109.4388 294° West  Level Estimated
Mon 11:00:00 AM 41.6253 -109.5676 294° West  Level Estimated
Mon 11:01:00 AM 41.6677 -109.6965 294° West  Level Estimated
Mon 11:02:00 AM 41.7100 -109.8256 294° West  Level Estimated
Mon 11:03:00 AM 41.7522 -109.9548 294° West  Level Estimated
Mon 11:04:00 AM 41.7942 -110.0842 294° West  Level Estimated
Mon 11:05:00 AM 41.8361 -110.2138 293° West  Level Estimated
Mon 11:06:00 AM 41.8778 -110.3436 293° West  Level Estimated
Mon 11:07:00 AM 41.9194 -110.4735 293° West  Level Estimated
Mon 11:08:00 AM 41.9608 -110.6036 293° West  Level Estimated
Mon 11:09:00 AM 42.0021 -110.7338 293° West  Level Estimated
Mon 11:10:00 AM 42.0432 -110.8643 293° West  Level Estimated
Mon 11:11:00 AM 42.0842 -110.9949 293° West  Level Estimated
Mon 11:12:00 AM 42.1250 -111.1256 293° West  Level Estimated
Mon 11:13:00 AM 42.1657 -111.2566 293° West  Level Estimated
Mon 11:14:00 AM 42.2063 -111.3877 293° West  Level Estimated
Mon 11:15:00 AM 42.2467 -111.5190 293° West  Level Estimated
Mon 11:16:00 AM 42.2869 -111.6504 293° West  Level Estimated
Mon 11:17:00 AM 42.3270 -111.7820 292° West  Level Estimated
Mon 11:18:00 AM 42.3669 -111.9138 292° West  Level Estimated
Mon 11:19:00 AM 42.4067 -112.0457 292° West  Level Estimated
Mon 11:20:00 AM 42.4464 -112.1778 292° West  Level Estimated
Mon 11:21:00 AM 42.4859 -112.3101 292° West  Level Estimated
Mon 11:22:00 AM 42.5252 -112.4426 292° West  Level Estimated
Mon 11:23:00 AM 42.5644 -112.5752 292° West  Level Estimated
Mon 11:24:00 AM 42.6034 -112.7080 292° West  Level Estimated
Mon 11:25:00 AM 42.6423 -112.8409 292° West  Level Estimated
Mon 11:26:00 AM 42.6810 -112.9740 292° West  Level Estimated
Mon 11:27:00 AM 42.7196 -113.1073 292° West  Level Estimated
Mon 11:28:00 AM 42.7580 -113.2407 291° West  Level Estimated
Mon 11:29:00 AM 42.7962 -113.3744 291° West  Level Estimated
Mon 11:30:00 AM 42.8343 -113.5081 291° West  Level Estimated
Mon 11:31:00 AM 42.8723 -113.6421 291° West  Level Estimated
Mon 11:32:00 AM 42.9101 -113.7762 291° West  Level Estimated
Mon 11:33:00 AM 42.9477 -113.9104 291° West  Level Estimated
Mon 11:34:00 AM 42.9852 -114.0449 291° West  Level Estimated
Mon 11:35:00 AM 43.0225 -114.1794 291° West  Level Estimated
Mon 11:36:00 AM 43.0596 -114.3142 291° West  Level Estimated
Mon 11:37:00 AM 43.0966 -114.4491 291° West  Level Estimated
Mon 11:38:00 AM 43.1335 -114.5842 291° West  Level Estimated
Mon 11:39:00 AM 43.1702 -114.7194 290° West  Level Estimated
Mon 11:40:00 AM 43.2067 -114.8549 290° West  Level Estimated
Mon 11:41:00 AM 43.2430 -114.9904 290° West  Level Estimated
Mon 11:42:00 AM 43.2792 -115.1262 290° West  Level Estimated
Mon 11:43:00 AM 43.3153 -115.2620 290° West  Level Estimated
Mon 11:44:00 AM 43.3512 -115.3981 290° West  Level Estimated
Mon 11:45:00 AM 43.3869 -115.5343 290° West  Level Estimated
Mon 11:46:00 AM 43.4224 -115.6707 290° West  Level Estimated
Mon 11:47:00 AM 43.4578 -115.8072 290° West  Level Estimated
Mon 11:48:00 AM 43.4931 -115.9439 290° West  Level Estimated
Mon 11:49:00 AM 43.5281 -116.0807 290° West  Level Estimated
Mon 11:50:00 AM 43.5631 -116.2178 289° West  Level Estimated
Mon 11:51:00 AM 43.5644 -116.2229 289° West  Level Estimated
Mon 11:52:00 AM 43.5644 -116.2229 324° Northwest  Level Estimated
Mon 11:53:00 AM 43.5644 -116.2229 324° Northwest  Level Estimated
Mon 11:54:00 AM 43.5644 -116.2229 324° Northwest  Level Estimated
Mon 11:55:00 AM 43.5644 -116.2229 324° Northwest  Level Estimated
Mon 11:56:00 AM 43.5644 -116.2229 324° Northwest  Level Estimated
Mon 11:57:00 AM 43.5644 -116.2229 324° Northwest  Level Estimated

Login

Don't have an account? Register now (free) for customized features, flight alerts, and more!